sensor_id;sensor_type;location;lat;lon;timestamp;temperature;humidity
48666;DHT22;34452;50.796;4.994;2023-06-14T00:01:44;17.50;95.80
48666;DHT22;34452;50.796;4.994;2023-06-14T00:04:11;17.50;95.90
48666;DHT22;34452;50.796;4.994;2023-06-14T00:06:38;17.50;96.80
48666;DHT22;34452;50.796;4.994;2023-06-14T00:09:04;17.50;97.30
48666;DHT22;34452;50.796;4.994;2023-06-14T00:11:31;17.50;97.00
48666;DHT22;34452;50.796;4.994;2023-06-14T00:13:57;17.50;97.00
48666;DHT22;34452;50.796;4.994;2023-06-14T00:16:23;17.60;94.40
48666;DHT22;34452;50.796;4.994;2023-06-14T00:18:49;17.60;95.40
48666;DHT22;34452;50.796;4.994;2023-06-14T00:21:15;17.80;90.00
48666;DHT22;34452;50.796;4.994;2023-06-14T00:23:41;17.90;88.70
48666;DHT22;34452;50.796;4.994;2023-06-14T00:26:06;17.80;93.40
48666;DHT22;34452;50.796;4.994;2023-06-14T00:28:32;17.60;95.10
48666;DHT22;34452;50.796;4.994;2023-06-14T00:30:58;17.70;90.30
48666;DHT22;34452;50.796;4.994;2023-06-14T00:33:23;17.90;87.60
48666;DHT22;34452;50.796;4.994;2023-06-14T00:35:50;17.90;90.60
48666;DHT22;34452;50.796;4.994;2023-06-14T00:38:15;17.80;93.40
48666;DHT22;34452;50.796;4.994;2023-06-14T00:40:41;17.60;94.70
48666;DHT22;34452;50.796;4.994;2023-06-14T00:43:07;17.50;94.00
48666;DHT22;34452;50.796;4.994;2023-06-14T00:45:33;17.50;95.50
48666;DHT22;34452;50.796;4.994;2023-06-14T00:48:02;17.40;95.20
48666;DHT22;34452;50.796;4.994;2023-06-14T00:50:28;17.40;95.50
48666;DHT22;34452;50.796;4.994;2023-06-14T00:52:56;17.30;95.50
48666;DHT22;34452;50.796;4.994;2023-06-14T00:55:21;17.30;95.80
48666;DHT22;34452;50.796;4.994;2023-06-14T00:57:48;17.20;94.70
48666;DHT22;34452;50.796;4.994;2023-06-14T01:00:15;17.10;93.60
48666;DHT22;34452;50.796;4.994;2023-06-14T01:02:40;17.20;93.10
48666;DHT22;34452;50.796;4.994;2023-06-14T01:05:08;17.30;94.10
48666;DHT22;34452;50.796;4.994;2023-06-14T01:08:07;17.20;95.80
48666;DHT22;34452;50.796;4.994;2023-06-14T01:10:41;17.10;96.40
48666;DHT22;34452;50.796;4.994;2023-06-14T01:15:37;17.20;92.10
48666;DHT22;34452;50.796;4.994;2023-06-14T01:18:03;17.20;92.10
48666;DHT22;34452;50.796;4.994;2023-06-14T01:20:32;17.10;94.60
48666;DHT22;34452;50.796;4.994;2023-06-14T01:22:58;16.90;96.10
48666;DHT22;34452;50.796;4.994;2023-06-14T01:25:25;16.60;96.50
48666;DHT22;34452;50.796;4.994;2023-06-14T01:28:10;16.60;96.90
48666;DHT22;34452;50.796;4.994;2023-06-14T01:30:40;16.60;96.80
48666;DHT22;34452;50.796;4.994;2023-06-14T01:33:12;16.60;97.10
48666;DHT22;34452;50.796;4.994;2023-06-14T01:35:41;16.50;97.10
48666;DHT22;34452;50.796;4.994;2023-06-14T01:38:07;16.50;97.30
48666;DHT22;34452;50.796;4.994;2023-06-14T01:40:34;16.40;97.00
48666;DHT22;34452;50.796;4.994;2023-06-14T01:43:01;16.40;96.50
48666;DHT22;34452;50.796;4.994;2023-06-14T01:45:28;16.30;97.50
48666;DHT22;34452;50.796;4.994;2023-06-14T01:47:55;16.10;97.30
48666;DHT22;34452;50.796;4.994;2023-06-14T01:50:21;16.00;97.60
48666;DHT22;34452;50.796;4.994;2023-06-14T01:52:46;15.90;98.70
48666;DHT22;34452;50.796;4.994;2023-06-14T01:55:12;15.80;99.00
48666;DHT22;34452;50.796;4.994;2023-06-14T01:57:38;15.60;99.50
48666;DHT22;34452;50.796;4.994;2023-06-14T02:00:05;15.60;99.90
48666;DHT22;34452;50.796;4.994;2023-06-14T02:02:38;15.50;99.90
48666;DHT22;34452;50.796;4.994;2023-06-14T02:05:04;15.60;99.90
48666;DHT22;34452;50.796;4.994;2023-06-14T02:07:29;15.70;99.90
48666;DHT22;34452;50.796;4.994;2023-06-14T02:09:55;15.80;99.90
48666;DHT22;34452;50.796;4.994;2023-06-14T02:12:21;15.80;99.90
48666;DHT22;34452;50.796;4.994;2023-06-14T02:14:46;15.80;99.90
48666;DHT22;34452;50.796;4.994;2023-06-14T02:17:14;15.80;99.90
48666;DHT22;34452;50.796;4.994;2023-06-14T02:19:40;15.70;99.90
48666;DHT22;34452;50.796;4.994;2023-06-14T02:22:06;15.60;99.90
48666;DHT22;34452;50.796;4.994;2023-06-14T02:24:32;15.60;99.90
48666;DHT22;34452;50.796;4.994;2023-06-14T02:26:58;15.50;99.90
48666;DHT22;34452;50.796;4.994;2023-06-14T02:29:23;15.40;99.90
48666;DHT22;34452;50.796;4.994;2023-06-14T02:31:49;15.40;99.90
48666;DHT22;34452;50.796;4.994;2023-06-14T02:34:15;15.70;99.90
48666;DHT22;34452;50.796;4.994;2023-06-14T02:36:43;15.70;99.90
48666;DHT22;34452;50.796;4.994;2023-06-14T02:39:09;15.50;99.90
48666;DHT22;34452;50.796;4.994;2023-06-14T02:41:35;15.40;99.90
48666;DHT22;34452;50.796;4.994;2023-06-14T02:44:02;15.20;99.90
48666;DHT22;34452;50.796;4.994;2023-06-14T02:46:27;15.10;99.90
48666;DHT22;34452;50.796;4.994;2023-06-14T02:48:53;15.10;99.90
48666;DHT22;34452;50.796;4.994;2023-06-14T02:51:19;15.20;99.90
48666;DHT22;34452;50.796;4.994;2023-06-14T02:53:45;15.20;99.90
48666;DHT22;34452;50.796;4.994;2023-06-14T02:56:11;15.20;99.90
48666;DHT22;34452;50.796;4.994;2023-06-14T02:58:37;15.20;99.90
48666;DHT22;34452;50.796;4.994;2023-06-14T03:01:04;15.10;99.90
48666;DHT22;34452;50.796;4.994;2023-06-14T03:03:31;15.00;99.90
48666;DHT22;34452;50.796;4.994;2023-06-14T03:05:57;15.00;99.90
48666;DHT22;34452;50.796;4.994;2023-06-14T03:08:23;14.90;99.90
48666;DHT22;34452;50.796;4.994;2023-06-14T03:10:52;14.90;99.90
48666;DHT22;34452;50.796;4.994;2023-06-14T03:13:18;14.80;99.90
48666;DHT22;34452;50.796;4.994;2023-06-14T03:15:47;14.60;99.90
48666;DHT22;34452;50.796;4.994;2023-06-14T03:18:13;14.70;99.90
48666;DHT22;34452;50.796;4.994;2023-06-14T03:20:40;14.70;99.90
48666;DHT22;34452;50.796;4.994;2023-06-14T03:23:08;14.80;99.90
48666;DHT22;34452;50.796;4.994;2023-06-14T03:25:34;14.90;99.90
48666;DHT22;34452;50.796;4.994;2023-06-14T03:28:04;14.80;99.90
48666;DHT22;34452;50.796;4.994;2023-06-14T03:30:30;14.80;99.90
48666;DHT22;34452;50.796;4.994;2023-06-14T03:32:56;14.90;99.90
48666;DHT22;34452;50.796;4.994;2023-06-14T03:35:23;14.90;99.90
48666;DHT22;34452;50.796;4.994;2023-06-14T03:37:49;14.90;99.90
48666;DHT22;34452;50.796;4.994;2023-06-14T03:40:17;14.90;99.90
48666;DHT22;34452;50.796;4.994;2023-06-14T03:42:43;14.90;99.90
48666;DHT22;34452;50.796;4.994;2023-06-14T03:45:09;14.90;99.90
48666;DHT22;34452;50.796;4.994;2023-06-14T03:47:35;14.80;99.90
48666;DHT22;34452;50.796;4.994;2023-06-14T03:50:02;14.80;99.90
48666;DHT22;34452;50.796;4.994;2023-06-14T03:52:29;14.80;99.90
48666;DHT22;34452;50.796;4.994;2023-06-14T03:54:54;14.80;99.90
48666;DHT22;34452;50.796;4.994;2023-06-14T03:57:21;14.70;99.90
48666;DHT22;34452;50.796;4.994;2023-06-14T03:59:47;14.80;99.90
48666;DHT22;34452;50.796;4.994;2023-06-14T04:02:13;14.80;99.90
48666;DHT22;34452;50.796;4.994;2023-06-14T04:04:42;14.80;99.90
48666;DHT22;34452;50.796;4.994;2023-06-14T04:07:11;14.70;99.90
48666;DHT22;34452;50.796;4.994;2023-06-14T04:09:38;14.80;99.90
48666;DHT22;34452;50.796;4.994;2023-06-14T04:12:04;14.70;99.90
48666;DHT22;34452;50.796;4.994;2023-06-14T04:14:30;14.60;99.90
48666;DHT22;34452;50.796;4.994;2023-06-14T04:16:58;14.60;99.90
48666;DHT22;34452;50.796;4.994;2023-06-14T04:19:24;14.80;99.90
48666;DHT22;34452;50.796;4.994;2023-06-14T04:21:50;14.90;99.90
48666;DHT22;34452;50.796;4.994;2023-06-14T04:24:15;14.90;99.90
48666;DHT22;34452;50.796;4.994;2023-06-14T04:26:43;14.90;99.90
48666;DHT22;34452;50.796;4.994;2023-06-14T04:29:11;15.10;99.90
48666;DHT22;34452;50.796;4.994;2023-06-14T04:31:40;15.10;99.90
48666;DHT22;34452;50.796;4.994;2023-06-14T04:34:06;15.30;99.90
48666;DHT22;34452;50.796;4.994;2023-06-14T04:36:32;15.40;99.90
48666;DHT22;34452;50.796;4.994;2023-06-14T04:39:01;15.40;99.90
48666;DHT22;34452;50.796;4.994;2023-06-14T04:41:30;15.50;99.90
48666;DHT22;34452;50.796;4.994;2023-06-14T04:43:59;15.50;99.90
48666;DHT22;34452;50.796;4.994;2023-06-14T04:46:28;15.50;99.90
48666;DHT22;34452;50.796;4.994;2023-06-14T04:48:54;15.60;99.90
48666;DHT22;34452;50.796;4.994;2023-06-14T04:51:20;15.60;99.90
48666;DHT22;34452;50.796;4.994;2023-06-14T04:53:48;15.70;99.90
48666;DHT22;34452;50.796;4.994;2023-06-14T04:56:15;15.80;99.90
48666;DHT22;34452;50.796;4.994;2023-06-14T04:58:42;15.90;99.90
48666;DHT22;34452;50.796;4.994;2023-06-14T05:01:09;16.00;99.90
48666;DHT22;34452;50.796;4.994;2023-06-14T05:03:34;16.00;99.90
48666;DHT22;34452;50.796;4.994;2023-06-14T05:06:00;16.20;99.90
48666;DHT22;34452;50.796;4.994;2023-06-14T05:08:26;16.30;99.90
48666;DHT22;34452;50.796;4.994;2023-06-14T05:10:52;16.40;99.90
48666;DHT22;34452;50.796;4.994;2023-06-14T05:13:18;16.50;99.90
48666;DHT22;34452;50.796;4.994;2023-06-14T05:15:44;16.60;99.90
48666;DHT22;34452;50.796;4.994;2023-06-14T05:18:10;16.70;99.90
48666;DHT22;34452;50.796;4.994;2023-06-14T05:20:36;16.70;99.90
48666;DHT22;34452;50.796;4.994;2023-06-14T05:23:03;16.90;99.90
48666;DHT22;34452;50.796;4.994;2023-06-14T05:25:28;17.10;99.90
48666;DHT22;34452;50.796;4.994;2023-06-14T05:27:54;17.20;99.90
48666;DHT22;34452;50.796;4.994;2023-06-14T05:30:20;17.40;99.90
48666;DHT22;34452;50.796;4.994;2023-06-14T05:32:46;17.50;99.90
48666;DHT22;34452;50.796;4.994;2023-06-14T05:35:12;17.60;99.90
48666;DHT22;34452;50.796;4.994;2023-06-14T05:37:38;17.70;99.90
48666;DHT22;34452;50.796;4.994;2023-06-14T05:40:04;17.70;99.90
48666;DHT22;34452;50.796;4.994;2023-06-14T05:42:32;17.80;99.90
48666;DHT22;34452;50.796;4.994;2023-06-14T05:44:58;17.90;99.90
48666;DHT22;34452;50.796;4.994;2023-06-14T05:47:23;18.00;99.00
48666;DHT22;34452;50.796;4.994;2023-06-14T05:49:49;18.10;99.50
48666;DHT22;34452;50.796;4.994;2023-06-14T05:52:15;18.20;98.50
48666;DHT22;34452;50.796;4.994;2023-06-14T05:54:41;18.30;98.30
48666;DHT22;34452;50.796;4.994;2023-06-14T05:57:06;18.40;98.40
48666;DHT22;34452;50.796;4.994;2023-06-14T05:59:32;18.40;98.00
48666;DHT22;34452;50.796;4.994;2023-06-14T06:01:58;18.50;98.00
48666;DHT22;34452;50.796;4.994;2023-06-14T06:04:24;18.60;98.40
48666;DHT22;34452;50.796;4.994;2023-06-14T06:06:50;18.60;98.60
48666;DHT22;34452;50.796;4.994;2023-06-14T06:09:15;18.60;99.20
48666;DHT22;34452;50.796;4.994;2023-06-14T06:11:41;18.60;96.70
48666;DHT22;34452;50.796;4.994;2023-06-14T06:14:07;18.70;97.10
48666;DHT22;34452;50.796;4.994;2023-06-14T06:16:32;18.90;97.00
48666;DHT22;34452;50.796;4.994;2023-06-14T06:18:58;18.90;96.80
48666;DHT22;34452;50.796;4.994;2023-06-14T06:21:24;19.00;95.90
48666;DHT22;34452;50.796;4.994;2023-06-14T06:23:50;19.00;95.60
48666;DHT22;34452;50.796;4.994;2023-06-14T06:26:16;19.10;96.40
48666;DHT22;34452;50.796;4.994;2023-06-14T06:28:42;19.20;96.00
48666;DHT22;34452;50.796;4.994;2023-06-14T06:31:07;19.20;95.20
48666;DHT22;34452;50.796;4.994;2023-06-14T06:33:33;19.20;95.30
48666;DHT22;34452;50.796;4.994;2023-06-14T06:35:59;19.20;95.50
48666;DHT22;34452;50.796;4.994;2023-06-14T06:38:25;19.30;95.30
48666;DHT22;34452;50.796;4.994;2023-06-14T06:40:50;19.40;95.40
48666;DHT22;34452;50.796;4.994;2023-06-14T06:43:16;19.60;95.30
48666;DHT22;34452;50.796;4.994;2023-06-14T06:45:43;19.70;95.30
48666;DHT22;34452;50.796;4.994;2023-06-14T06:48:09;19.70;94.70
48666;DHT22;34452;50.796;4.994;2023-06-14T06:50:36;19.80;94.70
48666;DHT22;34452;50.796;4.994;2023-06-14T06:53:02;19.90;94.30
48666;DHT22;34452;50.796;4.994;2023-06-14T06:55:28;20.00;94.00
48666;DHT22;34452;50.796;4.994;2023-06-14T06:57:54;20.00;93.50
48666;DHT22;34452;50.796;4.994;2023-06-14T07:00:20;20.10;93.80
48666;DHT22;34452;50.796;4.994;2023-06-14T07:02:46;20.10;93.20
48666;DHT22;34452;50.796;4.994;2023-06-14T07:05:12;20.30;93.50
48666;DHT22;34452;50.796;4.994;2023-06-14T07:07:38;20.40;93.40
48666;DHT22;34452;50.796;4.994;2023-06-14T07:10:05;20.50;92.70
48666;DHT22;34452;50.796;4.994;2023-06-14T07:12:31;20.60;92.40
48666;DHT22;34452;50.796;4.994;2023-06-14T07:14:59;20.70;92.30
48666;DHT22;34452;50.796;4.994;2023-06-14T07:17:26;20.70;92.50
48666;DHT22;34452;50.796;4.994;2023-06-14T07:19:51;20.80;91.70
48666;DHT22;34452;50.796;4.994;2023-06-14T07:22:19;20.80;91.20
48666;DHT22;34452;50.796;4.994;2023-06-14T07:24:45;20.90;92.00
48666;DHT22;34452;50.796;4.994;2023-06-14T07:27:11;20.90;91.10
48666;DHT22;34452;50.796;4.994;2023-06-14T07:29:38;21.00;91.60
48666;DHT22;34452;50.796;4.994;2023-06-14T07:32:05;21.20;91.10
48666;DHT22;34452;50.796;4.994;2023-06-14T07:34:30;21.30;90.50
48666;DHT22;34452;50.796;4.994;2023-06-14T07:36:57;21.50;90.40
48666;DHT22;34452;50.796;4.994;2023-06-14T07:39:23;21.50;90.50
48666;DHT22;34452;50.796;4.994;2023-06-14T07:41:49;21.50;91.10
48666;DHT22;34452;50.796;4.994;2023-06-14T07:44:15;21.50;90.80
48666;DHT22;34452;50.796;4.994;2023-06-14T07:46:41;21.50;91.40
48666;DHT22;34452;50.796;4.994;2023-06-14T07:49:07;21.50;90.30
48666;DHT22;34452;50.796;4.994;2023-06-14T07:51:33;21.60;91.40
48666;DHT22;34452;50.796;4.994;2023-06-14T07:53:59;21.60;90.90
48666;DHT22;34452;50.796;4.994;2023-06-14T07:56:27;21.70;91.20
48666;DHT22;34452;50.796;4.994;2023-06-14T07:58:53;21.70;89.10
48666;DHT22;34452;50.796;4.994;2023-06-14T08:01:19;21.80;87.40
48666;DHT22;34452;50.796;4.994;2023-06-14T08:03:45;21.90;86.40
48666;DHT22;34452;50.796;4.994;2023-06-14T08:06:11;22.00;86.10
48666;DHT22;34452;50.796;4.994;2023-06-14T08:08:37;22.00;84.90
48666;DHT22;34452;50.796;4.994;2023-06-14T08:11:03;22.10;83.80
48666;DHT22;34452;50.796;4.994;2023-06-14T08:13:29;22.10;80.90
48666;DHT22;34452;50.796;4.994;2023-06-14T08:15:54;22.20;82.60
48666;DHT22;34452;50.796;4.994;2023-06-14T08:18:22;22.30;81.20
48666;DHT22;34452;50.796;4.994;2023-06-14T08:20:48;22.30;80.50
48666;DHT22;34452;50.796;4.994;2023-06-14T08:23:15;22.50;80.90
48666;DHT22;34452;50.796;4.994;2023-06-14T08:25:44;22.60;79.90
48666;DHT22;34452;50.796;4.994;2023-06-14T08:28:10;22.60;77.00
48666;DHT22;34452;50.796;4.994;2023-06-14T08:30:36;22.50;77.90
48666;DHT22;34452;50.796;4.994;2023-06-14T08:33:02;22.50;74.00
48666;DHT22;34452;50.796;4.994;2023-06-14T08:35:28;22.50;75.20
48666;DHT22;34452;50.796;4.994;2023-06-14T08:37:54;22.60;73.50
48666;DHT22;34452;50.796;4.994;2023-06-14T08:40:22;22.60;76.60
48666;DHT22;34452;50.796;4.994;2023-06-14T08:42:52;22.80;76.70
48666;DHT22;34452;50.796;4.994;2023-06-14T08:45:19;22.80;72.50
48666;DHT22;34452;50.796;4.994;2023-06-14T08:47:47;22.90;74.10
48666;DHT22;34452;50.796;4.994;2023-06-14T08:50:21;22.90;68.90
48666;DHT22;34452;50.796;4.994;2023-06-14T08:52:53;23.00;69.50
48666;DHT22;34452;50.796;4.994;2023-06-14T08:55:20;23.00;68.80
48666;DHT22;34452;50.796;4.994;2023-06-14T08:57:51;23.20;69.50
48666;DHT22;34452;50.796;4.994;2023-06-14T09:00:20;23.40;70.50
48666;DHT22;34452;50.796;4.994;2023-06-14T09:02:46;23.40;68.80
48666;DHT22;34452;50.796;4.994;2023-06-14T09:05:13;23.30;68.60
48666;DHT22;34452;50.796;4.994;2023-06-14T09:07:40;23.40;64.10
48666;DHT22;34452;50.796;4.994;2023-06-14T09:12:36;23.40;64.70
48666;DHT22;34452;50.796;4.994;2023-06-14T09:15:03;23.40;66.00
48666;DHT22;34452;50.796;4.994;2023-06-14T09:17:33;23.50;64.50
48666;DHT22;34452;50.796;4.994;2023-06-14T09:20:00;23.40;62.20
48666;DHT22;34452;50.796;4.994;2023-06-14T09:22:29;23.50;63.70
48666;DHT22;34452;50.796;4.994;2023-06-14T09:24:54;23.60;66.00
48666;DHT22;34452;50.796;4.994;2023-06-14T09:27:20;23.70;62.60
48666;DHT22;34452;50.796;4.994;2023-06-14T09:29:46;23.80;61.70
48666;DHT22;34452;50.796;4.994;2023-06-14T09:32:12;24.10;63.10
48666;DHT22;34452;50.796;4.994;2023-06-14T09:34:37;24.00;61.20
48666;DHT22;34452;50.796;4.994;2023-06-14T09:37:04;24.10;65.10
48666;DHT22;34452;50.796;4.994;2023-06-14T09:39:29;24.20;59.30
48666;DHT22;34452;50.796;4.994;2023-06-14T09:41:55;24.20;59.80
48666;DHT22;34452;50.796;4.994;2023-06-14T09:44:21;24.30;58.90
48666;DHT22;34452;50.796;4.994;2023-06-14T09:46:50;24.30;56.40
48666;DHT22;34452;50.796;4.994;2023-06-14T09:49:16;24.10;57.60
48666;DHT22;34452;50.796;4.994;2023-06-14T09:51:43;24.00;57.60
48666;DHT22;34452;50.796;4.994;2023-06-14T09:54:15;24.00;57.70
48666;DHT22;34452;50.796;4.994;2023-06-14T09:56:44;24.10;56.60
48666;DHT22;34452;50.796;4.994;2023-06-14T09:59:12;24.20;55.60
48666;DHT22;34452;50.796;4.994;2023-06-14T10:02:12;24.30;57.50
48666;DHT22;34452;50.796;4.994;2023-06-14T10:04:44;24.50;53.90
48666;DHT22;34452;50.796;4.994;2023-06-14T10:07:15;24.60;57.30
48666;DHT22;34452;50.796;4.994;2023-06-14T10:09:44;24.70;54.90
48666;DHT22;34452;50.796;4.994;2023-06-14T10:12:16;24.80;55.00
48666;DHT22;34452;50.796;4.994;2023-06-14T10:14:49;24.90;53.30
48666;DHT22;34452;50.796;4.994;2023-06-14T10:17:22;24.70;51.80
48666;DHT22;34452;50.796;4.994;2023-06-14T10:19:53;24.60;53.50
48666;DHT22;34452;50.796;4.994;2023-06-14T10:22:33;24.60;53.30
48666;DHT22;34452;50.796;4.994;2023-06-14T10:25:01;24.60;52.00
48666;DHT22;34452;50.796;4.994;2023-06-14T10:27:27;24.80;53.40
48666;DHT22;34452;50.796;4.994;2023-06-14T10:32:20;25.10;53.60
48666;DHT22;34452;50.796;4.994;2023-06-14T10:34:54;25.20;52.60
48666;DHT22;34452;50.796;4.994;2023-06-14T10:37:20;25.30;50.70
48666;DHT22;34452;50.796;4.994;2023-06-14T10:39:46;25.30;50.50
48666;DHT22;34452;50.796;4.994;2023-06-14T10:42:13;25.20;51.80
48666;DHT22;34452;50.796;4.994;2023-06-14T10:50:36;25.80;50.10
48666;DHT22;34452;50.796;4.994;2023-06-14T10:53:26;25.90;49.60
48666;DHT22;34452;50.796;4.994;2023-06-14T10:55:52;25.70;47.70
48666;DHT22;34452;50.796;4.994;2023-06-14T10:58:18;25.60;49.00
48666;DHT22;34452;50.796;4.994;2023-06-14T11:00:45;25.60;46.50
48666;DHT22;34452;50.796;4.994;2023-06-14T11:05:57;25.60;48.70
48666;DHT22;34452;50.796;4.994;2023-06-14T11:11:31;25.40;49.60
48666;DHT22;34452;50.796;4.994;2023-06-14T11:14:00;25.60;48.70
48666;DHT22;34452;50.796;4.994;2023-06-14T11:16:26;25.80;47.90
48666;DHT22;34452;50.796;4.994;2023-06-14T11:18:54;25.90;47.60
48666;DHT22;34452;50.796;4.994;2023-06-14T11:21:20;26.00;48.40
48666;DHT22;34452;50.796;4.994;2023-06-14T11:26:29;26.30;47.60
48666;DHT22;34452;50.796;4.994;2023-06-14T11:28:56;26.40;48.20
48666;DHT22;34452;50.796;4.994;2023-06-14T11:31:23;26.70;47.90
48666;DHT22;34452;50.796;4.994;2023-06-14T11:33:50;27.00;46.80
48666;DHT22;34452;50.796;4.994;2023-06-14T11:36:16;27.20;46.00
48666;DHT22;34452;50.796;4.994;2023-06-14T11:38:42;27.50;46.40
48666;DHT22;34452;50.796;4.994;2023-06-14T11:41:08;27.50;46.50
48666;DHT22;34452;50.796;4.994;2023-06-14T11:43:33;27.50;46.80
48666;DHT22;34452;50.796;4.994;2023-06-14T11:46:01;27.30;45.40
48666;DHT22;34452;50.796;4.994;2023-06-14T11:48:38;27.20;46.00
48666;DHT22;34452;50.796;4.994;2023-06-14T11:51:05;27.10;43.60
48666;DHT22;34452;50.796;4.994;2023-06-14T11:53:31;26.80;42.70
48666;DHT22;34452;50.796;4.994;2023-06-14T11:55:57;26.50;45.50
48666;DHT22;34452;50.796;4.994;2023-06-14T11:58:23;26.70;45.00
48666;DHT22;34452;50.796;4.994;2023-06-14T12:00:50;26.90;45.90
48666;DHT22;34452;50.796;4.994;2023-06-14T12:03:16;27.10;45.40
48666;DHT22;34452;50.796;4.994;2023-06-14T12:05:42;27.20;45.20
48666;DHT22;34452;50.796;4.994;2023-06-14T12:08:09;27.00;44.80
48666;DHT22;34452;50.796;4.994;2023-06-14T12:10:53;26.90;41.70
48666;DHT22;34452;50.796;4.994;2023-06-14T12:13:19;27.10;45.10
48666;DHT22;34452;50.796;4.994;2023-06-14T12:15:54;27.10;43.90
48666;DHT22;34452;50.796;4.994;2023-06-14T12:18:20;27.30;44.50
48666;DHT22;34452;50.796;4.994;2023-06-14T12:20:49;27.20;42.10
48666;DHT22;34452;50.796;4.994;2023-06-14T12:23:15;27.20;44.20
48666;DHT22;34452;50.796;4.994;2023-06-14T12:25:42;27.50;45.80
48666;DHT22;34452;50.796;4.994;2023-06-14T12:28:08;27.30;43.90
48666;DHT22;34452;50.796;4.994;2023-06-14T12:30:36;27.40;42.60
48666;DHT22;34452;50.796;4.994;2023-06-14T12:33:04;27.30;40.30
48666;DHT22;34452;50.796;4.994;2023-06-14T12:35:29;27.20;41.70
48666;DHT22;34452;50.796;4.994;2023-06-14T12:37:55;27.20;40.10
48666;DHT22;34452;50.796;4.994;2023-06-14T12:40:22;27.40;44.20
48666;DHT22;34452;50.796;4.994;2023-06-14T12:42:48;27.50;39.60
48666;DHT22;34452;50.796;4.994;2023-06-14T12:45:13;27.50;38.60
48666;DHT22;34452;50.796;4.994;2023-06-14T12:47:39;27.60;41.60
48666;DHT22;34452;50.796;4.994;2023-06-14T12:50:06;27.60;41.40
48666;DHT22;34452;50.796;4.994;2023-06-14T12:52:32;27.50;36.10
48666;DHT22;34452;50.796;4.994;2023-06-14T12:55:02;27.50;39.30
48666;DHT22;34452;50.796;4.994;2023-06-14T12:57:28;27.50;37.60
48666;DHT22;34452;50.796;4.994;2023-06-14T12:59:54;28.00;40.70
48666;DHT22;34452;50.796;4.994;2023-06-14T13:02:20;28.60;37.60
48666;DHT22;34452;50.796;4.994;2023-06-14T13:04:49;28.60;39.80
48666;DHT22;34452;50.796;4.994;2023-06-14T13:07:14;28.30;36.70
48666;DHT22;34452;50.796;4.994;2023-06-14T13:09:41;28.00;36.10
48666;DHT22;34452;50.796;4.994;2023-06-14T13:12:08;28.30;39.20
48666;DHT22;34452;50.796;4.994;2023-06-14T13:14:36;28.20;38.20
48666;DHT22;34452;50.796;4.994;2023-06-14T13:17:01;28.20;36.90
48666;DHT22;34452;50.796;4.994;2023-06-14T13:19:27;28.30;36.90
48666;DHT22;34452;50.796;4.994;2023-06-14T13:21:53;28.10;35.90
48666;DHT22;34452;50.796;4.994;2023-06-14T13:24:18;28.00;34.90
48666;DHT22;34452;50.796;4.994;2023-06-14T13:26:44;27.90;37.30
48666;DHT22;34452;50.796;4.994;2023-06-14T13:29:10;28.10;39.00
48666;DHT22;34452;50.796;4.994;2023-06-14T13:31:35;28.30;37.40
48666;DHT22;34452;50.796;4.994;2023-06-14T13:34:01;28.50;38.40
48666;DHT22;34452;50.796;4.994;2023-06-14T13:36:27;28.60;37.50
48666;DHT22;34452;50.796;4.994;2023-06-14T13:38:53;28.50;35.90
48666;DHT22;34452;50.796;4.994;2023-06-14T13:41:20;28.70;36.80
48666;DHT22;34452;50.796;4.994;2023-06-14T13:43:46;28.80;38.40
48666;DHT22;34452;50.796;4.994;2023-06-14T13:46:11;28.70;36.80
48666;DHT22;34452;50.796;4.994;2023-06-14T13:48:37;28.60;38.20
48666;DHT22;34452;50.796;4.994;2023-06-14T13:51:03;28.40;35.80
48666;DHT22;34452;50.796;4.994;2023-06-14T13:53:29;28.30;37.50
48666;DHT22;34452;50.796;4.994;2023-06-14T13:55:55;28.50;38.90
48666;DHT22;34452;50.796;4.994;2023-06-14T13:58:22;28.70;39.20
48666;DHT22;34452;50.796;4.994;2023-06-14T14:00:48;29.10;36.70
48666;DHT22;34452;50.796;4.994;2023-06-14T14:03:14;29.10;38.00
48666;DHT22;34452;50.796;4.994;2023-06-14T14:05:40;29.20;37.40
48666;DHT22;34452;50.796;4.994;2023-06-14T14:08:05;29.10;37.80
48666;DHT22;34452;50.796;4.994;2023-06-14T14:10:31;29.10;37.80
48666;DHT22;34452;50.796;4.994;2023-06-14T14:12:57;28.80;36.60
48666;DHT22;34452;50.796;4.994;2023-06-14T14:15:23;28.60;37.00
48666;DHT22;34452;50.796;4.994;2023-06-14T14:17:48;28.60;38.20
48666;DHT22;34452;50.796;4.994;2023-06-14T14:20:14;28.80;37.00
48666;DHT22;34452;50.796;4.994;2023-06-14T14:22:42;28.90;37.60
48666;DHT22;34452;50.796;4.994;2023-06-14T14:25:09;29.10;35.70
48666;DHT22;34452;50.796;4.994;2023-06-14T14:27:36;28.90;35.70
48666;DHT22;34452;50.796;4.994;2023-06-14T14:30:03;28.90;35.50
48666;DHT22;34452;50.796;4.994;2023-06-14T14:32:29;28.90;35.10
48666;DHT22;34452;50.796;4.994;2023-06-14T14:34:55;28.90;35.00
48666;DHT22;34452;50.796;4.994;2023-06-14T14:37:20;28.90;35.20
48666;DHT22;34452;50.796;4.994;2023-06-14T14:39:46;29.00;34.20
48666;DHT22;34452;50.796;4.994;2023-06-14T14:42:12;29.30;38.00
48666;DHT22;34452;50.796;4.994;2023-06-14T14:44:38;29.40;35.50
48666;DHT22;34452;50.796;4.994;2023-06-14T14:47:05;29.50;35.70
48666;DHT22;34452;50.796;4.994;2023-06-14T14:49:31;29.80;35.40
48666;DHT22;34452;50.796;4.994;2023-06-14T14:51:57;29.90;34.90
48666;DHT22;34452;50.796;4.994;2023-06-14T14:54:23;29.70;35.40
48666;DHT22;34452;50.796;4.994;2023-06-14T14:56:50;29.70;34.60
48666;DHT22;34452;50.796;4.994;2023-06-14T14:59:16;29.90;33.00
48666;DHT22;34452;50.796;4.994;2023-06-14T15:01:43;30.20;33.00
48666;DHT22;34452;50.796;4.994;2023-06-14T15:04:08;30.20;33.70
48666;DHT22;34452;50.796;4.994;2023-06-14T15:06:34;30.10;35.20
48666;DHT22;34452;50.796;4.994;2023-06-14T15:09:01;30.40;35.90
48666;DHT22;34452;50.796;4.994;2023-06-14T15:11:27;30.90;34.50
48666;DHT22;34452;50.796;4.994;2023-06-14T15:13:52;31.10;33.70
48666;DHT22;34452;50.796;4.994;2023-06-14T15:16:19;30.70;32.50
48666;DHT22;34452;50.796;4.994;2023-06-14T15:18:45;30.50;32.30
48666;DHT22;34452;50.796;4.994;2023-06-14T15:21:11;30.50;34.80
48666;DHT22;34452;50.796;4.994;2023-06-14T15:23:37;30.60;33.00
48666;DHT22;34452;50.796;4.994;2023-06-14T15:26:03;30.60;33.10
48666;DHT22;34452;50.796;4.994;2023-06-14T15:28:28;30.70;32.20
48666;DHT22;34452;50.796;4.994;2023-06-14T15:30:55;30.70;32.10
48666;DHT22;34452;50.796;4.994;2023-06-14T15:33:21;30.60;32.40
48666;DHT22;34452;50.796;4.994;2023-06-14T15:35:47;30.80;31.80
48666;DHT22;34452;50.796;4.994;2023-06-14T15:38:13;31.30;32.00
48666;DHT22;34452;50.796;4.994;2023-06-14T15:40:39;31.60;30.70
48666;DHT22;34452;50.796;4.994;2023-06-14T15:43:05;31.70;31.10
48666;DHT22;34452;50.796;4.994;2023-06-14T15:45:30;31.90;32.00
48666;DHT22;34452;50.796;4.994;2023-06-14T15:47:57;32.20;32.30
48666;DHT22;34452;50.796;4.994;2023-06-14T15:50:22;32.40;31.60